Time;durP1;ratioP1;P1;durP2;ratioP2;P2;SDS_P1;SDS_P2;PMS_P1;PMS_P2;Temp;Humidity;BMP_temperature;BMP_pressure;BME280_temperature;BME280_humidity;BME280_pressure;Samples;Min_cycle;Max_cycle;Signal;HPM_P1;HPM_P2
2021/04/16 00:01:12;;;;;;;11.02;5.85;;;;;;;;;;4982272;28;20071;-80
2021/04/16 00:03:39;;;;;;;12.57;7.07;;;;;;;;;;4982255;28;20048;-80
2021/04/16 00:06:06;;;;;;;11.30;6.68;;;3.90;99.90;;;;;;4981778;28;20059;-80
2021/04/16 00:08:34;;;;;;;11.02;7.05;;;3.80;99.90;;;;;;4982228;28;20048;-80
2021/04/16 00:11:01;;;;;;;12.30;5.60;;;3.80;99.90;;;;;;4981888;28;20074;-80
2021/04/16 00:13:28;;;;;;;14.40;6.43;;;;;;;;;;5125639;23;20103;-81
2021/04/16 00:15:55;;;;;;;11.93;6.25;;;;;;;;;;4960946;28;20075;-82
2021/04/16 00:18:23;;;;;;;8.80;5.80;;;3.60;99.90;;;;;;4962119;28;20078;-81
2021/04/16 00:20:50;;;;;;;9.30;5.60;;;;;;;;;;4962336;28;20068;-82
2021/04/16 00:23:17;;;;;;;8.60;5.38;;;3.30;99.90;;;;;;4962192;28;20103;-82
2021/04/16 00:28:20;;;;;;;12.45;6.50;;;3.60;99.90;;;;;;5634799;23;20543;-81
2021/04/16 00:30:48;;;;;;;11.18;5.95;;;3.60;99.90;;;;;;4943277;29;20078;-80
2021/04/16 00:33:14;;;;;;;9.32;5.00;;;3.60;99.90;;;;;;4942201;29;20063;-80
2021/04/16 00:35:41;;;;;;;10.88;6.15;;;3.50;99.90;;;;;;4942784;29;20059;-80
2021/04/16 00:38:07;;;;;;;16.10;5.38;;;3.50;99.90;;;;;;4942905;29;20358;-80
2021/04/16 00:40:36;;;;;;;9.85;6.43;;;3.50;99.90;;;;;;4942437;29;20477;-80
2021/04/16 00:43:03;;;;;;;8.57;6.28;;;3.50;99.90;;;;;;4943123;29;20055;-80
2021/04/16 00:45:31;;;;;;;8.77;5.03;;;3.40;99.90;;;;;;4942673;29;20051;-80
2021/04/16 00:47:59;;;;;;;13.32;6.15;;;3.40;99.90;;;;;;4943174;29;20070;-80
2021/04/16 00:50:28;;;;;;;12.35;6.53;;;3.40;99.90;;;;;;4942390;29;20054;-80
2021/04/16 00:52:54;;;;;;;14.70;7.43;;;3.30;99.90;;;;;;4942279;29;20377;-80
2021/04/16 00:55:22;;;;;;;13.38;6.88;;;3.30;99.90;;;;;;4941698;29;20126;-80
2021/04/16 00:57:49;;;;;;;12.07;6.45;;;3.30;99.90;;;;;;4942764;29;20111;-81
2021/04/16 01:00:16;;;;;;;11.55;6.47;;;3.30;99.90;;;;;;4942195;29;20123;-80
2021/04/16 01:02:43;;;;;;;9.05;5.88;;;3.20;99.90;;;;;;4941796;29;20098;-80
2021/04/16 01:05:11;;;;;;;11.57;5.72;;;3.20;99.90;;;;;;4941755;29;20059;-80
2021/04/16 01:07:38;;;;;;;10.63;5.97;;;3.10;99.90;;;;;;4942216;29;20131;-80
2021/04/16 01:10:05;;;;;;;10.38;5.43;;;3.10;99.90;;;;;;4941409;29;20058;-80
2021/04/16 01:12:33;;;;;;;13.75;6.90;;;3.10;99.90;;;;;;4941181;29;20052;-80
2021/04/16 01:15:03;;;;;;;12.25;6.53;;;3.10;99.90;;;;;;4940626;29;20118;-80
2021/04/16 01:17:30;;;;;;;11.05;5.55;;;3.10;99.90;;;;;;4940988;29;20048;-80
2021/04/16 01:20:01;;;;;;;8.60;5.38;;;3.10;99.90;;;;;;4941356;29;20523;-80
2021/04/16 01:22:29;;;;;;;12.90;6.15;;;3.10;99.90;;;;;;4942079;29;20051;-80
2021/04/16 01:24:57;;;;;;;12.18;6.25;;;3.00;99.90;;;;;;4941425;29;20047;-80
2021/04/16 01:27:24;;;;;;;8.10;5.28;;;3.00;99.90;;;;;;4941655;29;20086;-80
2021/04/16 01:29:51;;;;;;;8.30;4.95;;;3.00;99.90;;;;;;4960892;29;20369;-80
2021/04/16 01:32:23;;;;;;;9.50;5.32;;;3.00;99.90;;;;;;4960764;29;20051;-80
2021/04/16 01:34:50;;;;;;;11.18;5.47;;;3.00;99.90;;;;;;4960805;29;20054;-81
2021/04/16 01:37:16;;;;;;;11.52;5.18;;;3.00;99.90;;;;;;4960572;29;20464;-80
2021/04/16 01:39:43;;;;;;;11.20;5.18;;;2.90;99.90;;;;;;4960517;29;20100;-80
2021/04/16 01:42:11;;;;;;;6.88;4.80;;;3.00;99.90;;;;;;4959679;29;20061;-80
2021/04/16 01:44:37;;;;;;;10.48;5.45;;;2.90;99.90;;;;;;4959320;29;20107;-80
2021/04/16 01:47:06;;;;;;;7.22;4.93;;;2.90;99.90;;;;;;4958704;29;20082;-80
2021/04/16 01:49:34;;;;;;;10.35;4.53;;;2.90;99.90;;;;;;4958959;29;20047;-81
2021/04/16 01:52:00;;;;;;;10.40;5.55;;;2.80;99.90;;;;;;4959245;29;20051;-80
2021/04/16 01:54:28;;;;;;;6.75;4.70;;;2.80;99.90;;;;;;4958744;29;20051;-80
2021/04/16 01:56:55;;;;;;;9.23;5.75;;;2.80;99.90;;;;;;4959631;29;20058;-80
2021/04/16 01:59:24;;;;;;;10.80;5.50;;;2.80;99.90;;;;;;4959742;29;20065;-80
2021/04/16 02:01:51;;;;;;;15.43;6.05;;;2.80;99.90;;;;;;4959646;29;20055;-80
2021/04/16 02:04:18;;;;;;;10.18;4.90;;;2.70;99.90;;;;;;4959417;29;20055;-80
2021/04/16 02:06:45;;;;;;;8.40;4.95;;;2.70;99.90;;;;;;4958990;29;20051;-80
2021/04/16 02:09:13;;;;;;;12.63;5.60;;;2.70;99.90;;;;;;4958831;29;20057;-80
2021/04/16 02:11:40;;;;;;;9.60;5.63;;;2.70;99.90;;;;;;4958040;29;20063;-80
2021/04/16 02:14:08;;;;;;;8.18;5.75;;;2.70;99.90;;;;;;4958046;29;20047;-80
2021/04/16 02:16:35;;;;;;;9.13;5.43;;;2.70;99.90;;;;;;4958083;29;20482;-80
2021/04/16 02:19:02;;;;;;;10.38;4.63;;;2.60;99.90;;;;;;4958546;29;20063;-80
2021/04/16 02:21:28;;;;;;;9.95;5.40;;;2.60;99.90;;;;;;4957709;29;20464;-80
2021/04/16 02:23:55;;;;;;;9.32;5.45;;;2.60;99.90;;;;;;4959255;29;20051;-80
2021/04/16 02:26:21;;;;;;;10.00;4.82;;;2.60;99.90;;;;;;4959390;29;20086;-80
2021/04/16 02:28:48;;;;;;;12.02;4.50;;;2.50;99.90;;;;;;4949315;28;20497;-80
2021/04/16 02:31:15;;;;;;;8.60;4.28;;;2.50;99.90;;;;;;4939924;29;20067;-80
2021/04/16 02:33:42;;;;;;;7.00;3.88;;;2.50;99.90;;;;;;4939559;29;20380;-80
2021/04/16 02:36:10;;;;;;;7.97;4.45;;;2.40;99.90;;;;;;4940122;29;20051;-80
2021/04/16 02:38:37;;;;;;;7.57;4.68;;;2.40;99.90;;;;;;4943001;29;20047;-80
2021/04/16 02:41:03;;;;;;;5.20;3.53;;;2.30;99.90;;;;;;4942932;29;20052;-80
2021/04/16 02:43:30;;;;;;;7.47;4.00;;;2.30;99.90;;;;;;4942578;29;20063;-80
2021/04/16 02:45:57;;;;;;;7.50;3.70;;;2.30;99.90;;;;;;4942596;29;20055;-80
2021/04/16 02:48:23;;;;;;;5.88;3.70;;;2.20;99.90;;;;;;4942552;29;20051;-80
2021/04/16 02:50:51;;;;;;;10.98;3.90;;;2.20;99.90;;;;;;4942205;29;20483;-80
2021/04/16 02:53:17;;;;;;;8.25;4.03;;;2.20;99.90;;;;;;4942331;29;20052;-80
2021/04/16 02:55:44;;;;;;;5.78;4.28;;;2.20;99.90;;;;;;4942685;29;20056;-80
2021/04/16 02:58:11;;;;;;;6.15;3.75;;;2.30;99.90;;;;;;4943110;29;20056;-80
2021/04/16 03:00:37;;;;;;;7.50;4.13;;;2.20;99.90;;;;;;4942215;29;20048;-80
2021/04/16 03:03:04;;;;;;;6.38;4.15;;;2.20;99.90;;;;;;4942107;29;20122;-80
2021/04/16 03:05:31;;;;;;;7.45;3.55;;;2.20;99.90;;;;;;4942052;29;20055;-80
2021/04/16 03:07:58;;;;;;;6.55;3.90;;;2.20;99.90;;;;;;4941817;29;20062;-80
2021/04/16 03:10:26;;;;;;;10.88;4.60;;;2.10;99.90;;;;;;4941665;29;20058;-80
2021/04/16 03:12:53;;;;;;;6.15;4.22;;;2.10;99.90;;;;;;4941693;29;20483;-80
2021/04/16 03:15:20;;;;;;;6.55;3.97;;;2.00;99.90;;;;;;4941712;29;20051;-80
2021/04/16 03:17:46;;;;;;;5.68;3.78;;;2.00;99.90;;;;;;4941465;29;20472;-80
2021/04/16 03:20:13;;;;;;;7.55;4.05;;;2.00;99.90;;;;;;4941550;29;20123;-80
2021/04/16 03:22:40;;;;;;;8.30;3.67;;;2.00;99.90;;;;;;4941736;29;20071;-80
2021/04/16 03:25:10;;;;;;;7.15;3.80;;;2.00;99.90;;;;;;4941642;29;20058;-80
2021/04/16 03:27:36;;;;;;;8.05;4.15;;;2.00;99.90;;;;;;4941750;29;20438;-80
2021/04/16 03:30:03;;;;;;;7.65;3.95;;;2.00;99.90;;;;;;4941723;29;20076;-80
2021/04/16 03:32:30;;;;;;;7.82;4.13;;;2.00;99.90;;;;;;4941738;29;20051;-80
2021/04/16 03:34:57;;;;;;;8.60;4.68;;;2.00;99.90;;;;;;4941255;29;20055;-80
2021/04/16 03:37:23;;;;;;;8.73;4.53;;;1.90;99.90;;;;;;4940902;29;20055;-80
2021/04/16 03:39:50;;;;;;;6.40;3.83;;;1.90;99.90;;;;;;4940501;29;20056;-80
2021/04/16 03:42:17;;;;;;;7.45;3.40;;;1.90;99.90;;;;;;4940653;29;20058;-80
2021/04/16 03:44:44;;;;;;;6.68;3.97;;;1.90;99.90;;;;;;4940996;29;20093;-80
2021/04/16 03:47:10;;;;;;;10.93;3.40;;;1.80;99.90;;;;;;4940341;29;20440;-80
2021/04/16 03:49:37;;;;;;;10.10;3.55;;;1.80;99.90;;;;;;4940617;29;20058;-79
2021/04/16 03:52:04;;;;;;;7.90;3.58;;;1.80;99.90;;;;;;4940326;29;20505;-80
2021/04/16 03:54:30;;;;;;;7.20;3.65;;;1.70;99.90;;;;;;4940767;29;20062;-80
2021/04/16 03:56:57;;;;;;;9.82;4.05;;;1.70;99.90;;;;;;4940208;29;20465;-80
2021/04/16 03:59:25;;;;;;;8.85;3.97;;;1.70;99.90;;;;;;4940740;29;20056;-80
2021/04/16 04:01:52;;;;;;;5.85;3.60;;;1.70;99.90;;;;;;4940365;29;20047;-80
2021/04/16 04:04:18;;;;;;;12.57;4.25;;;1.70;99.90;;;;;;4940543;29;20094;-80
2021/04/16 04:06:47;;;;;;;4.40;2.95;;;1.70;99.90;;;;;;4940437;29;20061;-80
2021/04/16 04:09:13;;;;;;;4.45;3.38;;;1.70;99.90;;;;;;4940159;29;20066;-80
2021/04/16 04:11:40;;;;;;;6.72;3.33;;;1.70;99.90;;;;;;4939964;29;20575;-80
2021/04/16 04:14:07;;;;;;;12.07;6.10;;;1.70;99.90;;;;;;4940254;29;20061;-80
2021/04/16 04:16:48;;;;;;;6.03;3.38;;;1.60;99.90;;;;;;4940037;29;20066;-80
2021/04/16 04:19:15;;;;;;;7.75;3.60;;;1.60;99.90;;;;;;4940306;29;20106;-80
2021/04/16 04:21:42;;;;;;;6.10;3.35;;;1.60;99.90;;;;;;4939978;29;20061;-80
2021/04/16 04:24:09;;;;;;;9.32;3.70;;;1.60;99.90;;;;;;4940019;29;20056;-80
2021/04/16 04:26:35;;;;;;;6.70;4.22;;;1.50;99.90;;;;;;4939988;29;20453;-80
2021/04/16 04:29:02;;;;;;;6.10;2.97;;;1.50;99.90;;;;;;4940009;29;20056;-80
2021/04/16 04:31:28;;;;;;;6.72;3.97;;;1.50;99.90;;;;;;4940278;29;20051;-80
2021/04/16 04:33:56;;;;;;;8.70;3.75;;;1.50;99.90;;;;;;4939622;29;20051;-80
2021/04/16 04:36:22;;;;;;;5.63;3.45;;;1.40;99.90;;;;;;4939273;29;20052;-80
2021/04/16 04:38:51;;;;;;;10.48;3.83;;;1.40;99.90;;;;;;4939629;29;20438;-80
2021/04/16 04:41:17;;;;;;;9.02;4.05;;;1.40;99.90;;;;;;4939705;29;20376;-80
2021/04/16 04:43:44;;;;;;;7.57;3.38;;;1.30;99.90;;;;;;4939525;29;20052;-80
2021/04/16 04:46:11;;;;;;;10.77;3.83;;;1.30;99.90;;;;;;4939230;29;20060;-80
2021/04/16 04:48:37;;;;;;;6.40;3.85;;;1.30;99.90;;;;;;4939493;29;20453;-80
2021/04/16 04:51:05;;;;;;;11.38;5.80;;;1.30;99.90;;;;;;4939269;29;20048;-80
2021/04/16 04:53:32;;;;;;;12.15;3.83;;;1.30;99.90;;;;;;4938954;29;20051;-80
2021/04/16 04:55:59;;;;;;;7.22;4.13;;;1.20;99.90;;;;;;4939054;29;20376;-80
2021/04/16 04:58:26;;;;;;;8.73;4.47;;;1.20;99.90;;;;;;4938927;29;20109;-80
2021/04/16 05:00:53;;;;;;;6.63;4.10;;;1.30;99.90;;;;;;4939062;29;20057;-80
2021/04/16 05:03:19;;;;;;;7.28;3.92;;;1.30;99.90;;;;;;4939375;29;20374;-80
2021/04/16 05:05:46;;;;;;;8.68;4.45;;;1.30;99.90;;;;;;4939109;29;20058;-80
2021/04/16 05:08:13;;;;;;;15.07;4.07;;;1.30;99.90;;;;;;4939460;29;20063;-80
2021/04/16 05:10:40;;;;;;;6.45;3.92;;;1.40;99.90;;;;;;4939163;29;20578;-80
2021/04/16 05:13:07;;;;;;;7.50;4.50;;;1.30;99.90;;;;;;4939156;29;20063;-80
2021/04/16 05:15:33;;;;;;;6.72;3.58;;;1.30;99.90;;;;;;4939139;29;20054;-80
2021/04/16 05:18:00;;;;;;;14.82;5.53;;;1.30;99.90;;;;;;4938772;29;20132;-80
2021/04/16 05:20:26;;;;;;;9.43;3.95;;;1.30;99.90;;;;;;4938708;29;20527;-80
2021/04/16 05:22:53;;;;;;;6.90;4.30;;;1.20;99.90;;;;;;4939130;29;20051;-80
2021/04/16 05:25:20;;;;;;;9.27;4.50;;;1.30;99.90;;;;;;4939246;29;20055;-80
2021/04/16 05:27:47;;;;;;;9.95;4.80;;;1.30;99.90;;;;;;4938916;29;20471;-79
2021/04/16 05:30:15;;;;;;;10.52;4.53;;;1.30;99.90;;;;;;4939012;29;20051;-80
2021/04/16 05:32:42;;;;;;;10.55;4.32;;;1.30;99.90;;;;;;4938518;29;20134;-80
2021/04/16 05:35:10;;;;;;;9.63;4.72;;;1.40;99.90;;;;;;4938374;29;20476;-80
2021/04/16 05:37:37;;;;;;;6.40;3.90;;;1.40;99.90;;;;;;4939015;29;20047;-80
2021/04/16 05:40:06;;;;;;;11.38;4.50;;;1.50;99.90;;;;;;4938139;29;20087;-80
2021/04/16 05:42:33;;;;;;;6.72;3.70;;;1.50;99.90;;;;;;4938481;29;20051;-80
2021/04/16 05:45:01;;;;;;;5.88;3.58;;;1.50;99.90;;;;;;4938720;29;20051;-80
2021/04/16 05:47:27;;;;;;;7.82;3.92;;;1.50;99.90;;;;;;4938959;29;20051;-80
2021/04/16 05:49:54;;;;;;;7.63;4.20;;;1.50;99.90;;;;;;4938035;29;20058;-80
2021/04/16 05:52:20;;;;;;;5.30;4.05;;;1.50;99.90;;;;;;4937966;29;20055;-80
2021/04/16 05:54:47;;;;;;;7.95;4.05;;;1.40;99.90;;;;;;4938484;29;20059;-80
2021/04/16 05:57:14;;;;;;;10.80;4.18;;;1.50;99.90;;;;;;4937991;29;20051;-80
2021/04/16 05:59:41;;;;;;;9.45;3.92;;;1.40;99.90;;;;;;4938271;29;20065;-80
2021/04/16 06:02:23;;;;;;;9.73;4.60;;;1.40;99.90;;;;;;4938426;29;20052;-80
2021/04/16 06:04:50;;;;;;;10.15;4.15;;;1.50;99.90;;;;;;4939416;29;20096;-80
2021/04/16 06:07:16;;;;;;;7.88;4.20;;;1.50;99.90;;;;;;4938459;29;20051;-80
2021/04/16 06:09:43;;;;;;;6.82;3.58;;;1.50;99.90;;;;;;4938273;29;20056;-80
2021/04/16 06:12:10;;;;;;;7.30;3.45;;;1.60;99.90;;;;;;4941140;29;20058;-80
2021/04/16 06:14:37;;;;;;;6.60;3.58;;;1.60;99.90;;;;;;4942455;29;20047;-80
2021/04/16 06:17:04;;;;;;;9.85;3.72;;;1.70;99.90;;;;;;4942247;29;20055;-80
2021/04/16 06:19:31;;;;;;;6.03;3.65;;;1.70;99.90;;;;;;4942086;29;20070;-80
2021/04/16 06:21:58;;;;;;;6.35;3.20;;;1.80;99.90;;;;;;4941613;29;20090;-80
2021/04/16 06:24:24;;;;;;;5.55;3.70;;;1.90;99.90;;;;;;4941942;29;20491;-80
2021/04/16 06:26:51;;;;;;;9.00;3.10;;;1.90;99.90;;;;;;4941937;29;20126;-80
2021/04/16 06:29:17;;;;;;;6.95;3.83;;;2.00;99.90;;;;;;4941883;29;20077;-80
2021/04/16 06:31:44;;;;;;;8.63;3.38;;;2.10;99.90;;;;;;4941720;29;20055;-80
2021/04/16 06:34:11;;;;;;;5.85;3.22;;;2.20;99.90;;;;;;4941875;29;20064;-80
2021/04/16 06:36:38;;;;;;;8.02;3.10;;;2.30;99.90;;;;;;4941561;29;20052;-80
2021/04/16 06:39:05;;;;;;;5.15;2.70;;;2.40;99.90;;;;;;4942005;29;20066;-80
2021/04/16 06:41:32;;;;;;;8.25;2.97;;;2.50;99.90;;;;;;4942090;29;20052;-80
2021/04/16 06:44:00;;;;;;;8.23;2.42;;;2.60;99.90;;;;;;4942772;29;20051;-80
2021/04/16 06:46:28;;;;;;;5.65;2.67;;;2.70;99.90;;;;;;4942595;29;20082;-80
2021/04/16 06:48:58;;;;;;;5.22;2.42;;;2.80;99.90;;;;;;4941792;29;20059;-80
2021/04/16 06:51:25;;;;;;;5.70;2.63;;;2.90;99.90;;;;;;4942018;29;20052;-80
2021/04/16 06:53:56;;;;;;;12.75;3.40;;;3.00;99.90;;;;;;4941713;29;20048;-80
2021/04/16 06:56:25;;;;;;;4.13;2.80;;;3.10;99.90;;;;;;4942101;29;20052;-80
2021/04/16 06:58:54;;;;;;;4.70;2.03;;;3.10;99.90;;;;;;4941858;29;20442;-80
2021/04/16 07:01:27;;;;;;;13.55;2.92;;;3.20;99.90;;;;;;4941228;29;20373;-80
2021/04/16 07:04:08;;;;;;;19.58;2.28;;;3.30;99.90;;;;;;4941696;29;20052;-80
2021/04/16 07:06:35;;;;;;;7.88;2.97;;;3.50;99.90;;;;;;4941967;29;20056;-80
2021/04/16 07:09:05;;;;;;;6.82;2.50;;;3.70;99.90;;;;;;4942083;29;20048;-80
2021/04/16 07:11:33;;;;;;;5.82;2.25;;;3.90;99.90;;;;;;4941938;29;20048;-80
2021/04/16 07:14:00;;;;;;;3.50;2.15;;;4.40;99.90;;;;;;4941863;29;20061;-80
2021/04/16 07:16:27;;;;;;;6.80;2.95;;;4.80;99.90;;;;;;4942185;29;20086;-81
2021/04/16 07:18:57;;;;;;;5.70;2.67;;;5.30;99.90;;;;;;4942941;29;20048;-80
2021/04/16 07:21:24;;;;;;;6.97;1.85;;;6.70;99.90;;;;;;4940559;29;20051;-82
2021/04/16 07:23:52;;;;;;;5.68;1.90;;;9.60;99.90;;;;;;4939874;29;20047;-82
2021/04/16 07:26:27;;;;;;;4.47;2.05;;;12.80;99.90;;;;;;4940257;29;20059;-81
2021/04/16 07:28:55;;;;;;;5.35;1.80;;;15.60;99.90;;;;;;4940213;28;20063;-80
2021/04/16 07:31:29;;;;;;;4.10;2.35;;;18.20;92.00;;;;;;4939830;29;20048;-80
2021/04/16 07:33:56;;;;;;;2.25;1.70;;;20.00;69.20;;;;;;4939788;29;20052;-79
2021/04/16 07:36:30;;;;;;;9.38;2.95;;;21.70;67.30;;;;;;4939637;29;20469;-80
2021/04/16 07:39:20;;;;;;;4.78;1.92;;;23.10;58.80;;;;;;4939685;29;20051;-80
2021/04/16 07:41:48;;;;;;;3.28;2.03;;;24.00;55.80;;;;;;4939585;29;20504;-80
2021/04/16 07:44:18;;;;;;;4.75;2.28;;;24.80;54.00;;;;;;4939537;29;20054;-80
2021/04/16 07:46:47;;;;;;;3.55;1.75;;;24.80;49.10;;;;;;4939710;29;20200;-80
2021/04/16 07:49:25;;;;;;;5.70;1.83;;;22.80;46.90;;;;;;4939766;29;20140;-80
2021/04/16 07:51:55;;;;;;;5.75;1.88;;;19.80;47.90;;;;;;4939708;29;20117;-79
2021/04/16 07:54:24;;;;;;;5.32;1.83;;;17.00;50.10;;;;;;4939386;29;20473;-79
2021/04/16 07:57:08;;;;;;;3.75;1.60;;;14.80;53.70;;;;;;4939551;29;20457;-79
2021/04/16 07:59:56;;;;;;;6.35;1.63;;;13.00;60.10;;;;;;4939599;29;20066;-80
2021/04/16 08:02:26;;;;;;;4.25;1.80;;;11.60;64.20;;;;;;4939576;29;20052;-81
2021/04/16 08:04:52;;;;;;;3.30;1.52;;;10.60;68.30;;;;;;4939059;29;20055;-81
2021/04/16 08:07:20;;;;;;;5.50;1.60;;;9.90;71.90;;;;;;4939136;29;20060;-81
2021/04/16 08:09:48;;;;;;;7.20;2.53;;;9.30;77.00;;;;;;4939214;29;20082;-82
2021/04/16 08:12:16;;;;;;;3.08;1.77;;;8.90;84.50;;;;;;4939100;29;20453;-79
2021/04/16 08:14:43;;;;;;;3.50;1.83;;;8.50;91.00;;;;;;4939297;29;20087;-81
2021/04/16 08:17:17;;;;;;;5.70;2.00;;;8.30;95.90;;;;;;4939033;29;20071;-82
2021/04/16 08:19:44;;;;;;;6.18;2.15;;;8.10;98.30;;;;;;4938949;29;20056;-82
2021/04/16 08:22:12;;;;;;;8.75;2.50;;;8.00;98.40;;;;;;4938851;29;20397;-80
2021/04/16 08:24:45;;;;;;;2.95;1.60;;;8.00;99.10;;;;;;4938769;29;20051;-81
2021/04/16 08:27:31;;;;;;;5.63;1.83;;;7.80;99.90;;;;;;4938886;29;20055;-82
2021/04/16 08:30:00;;;;;;;3.45;1.65;;;7.80;99.90;;;;;;4937820;29;20060;-82
2021/04/16 08:32:29;;;;;;;3.90;1.65;;;7.80;99.90;;;;;;4938696;29;20052;-82
2021/04/16 08:34:59;;;;;;;5.13;1.50;;;7.70;99.90;;;;;;4937955;29;20047;-83
2021/04/16 08:37:27;;;;;;;4.60;1.13;;;7.70;99.90;;;;;;4938629;29;20052;-84
2021/04/16 08:39:54;;;;;;;3.00;1.20;;;7.70;99.90;;;;;;4938463;29;20055;-83
2021/04/16 08:42:22;;;;;;;1.88;1.67;;;7.70;99.90;;;;;;4938435;29;20465;-84
2021/04/16 08:44:52;;;;;;;2.85;1.52;;;7.70;99.90;;;;;;4938436;29;20062;-83
2021/04/16 08:47:24;;;;;;;3.90;1.95;;;7.70;99.90;;;;;;4938718;29;20072;-83
2021/04/16 08:49:52;;;;;;;1.25;0.57;;;7.80;99.90;;;;;;4938526;29;20055;-88
2021/04/16 08:52:20;;;;;;;0.95;0.32;;;7.80;99.00;;;;;;4938564;29;20135;-87
2021/04/16 08:54:49;;;;;;;1.58;0.40;;;7.80;98.60;;;;;;4938468;29;20106;-87
2021/04/16 08:57:17;;;;;;;1.75;0.60;;;7.90;98.50;;;;;;4938337;29;20051;-87
2021/04/16 08:59:54;;;;;;;2.60;0.65;;;7.90;99.90;;;;;;4938526;29;20051;-87
2021/04/16 09:02:21;;;;;;;2.20;0.95;;;7.90;98.80;;;;;;4938425;29;20058;-86
2021/04/16 09:04:50;;;;;;;5.35;0.50;;;7.90;99.20;;;;;;4938527;29;20055;-87
2021/04/16 09:07:39;;;;;;;1.75;0.68;;;8.00;98.80;;;;;;4938044;29;20055;-87
2021/04/16 09:10:10;;;;;;;2.05;1.00;;;8.00;99.20;;;;;;4938158;29;20384;-87
2021/04/16 09:12:50;;;;;;;2.25;0.40;;;8.00;97.30;;;;;;4938223;29;20055;-87
2021/04/16 09:15:45;;;;;;;2.10;0.45;;;7.90;95.40;;;;;;4938282;29;20052;-87
2021/04/16 09:18:25;;;;;;;2.42;0.60;;;8.00;94.30;;;;;;4880048;29;20057;-86
2021/04/16 09:21:12;;;;;;;7.05;1.02;;;8.00;95.10;;;;;;4879726;29;20060;-87
2021/04/16 09:24:02;;;;;;;7.18;0.80;;;8.10;94.00;;;;;;4879432;29;20061;-87
2021/04/16 09:26:57;;;;;;;2.40;0.90;;;8.10;95.80;;;;;;4879282;29;20393;-87
2021/04/16 09:29:36;;;;;;;3.80;0.52;;;8.20;95.50;;;;;;4879582;29;20123;-87
2021/04/16 09:32:04;;;;;;;2.47;0.80;;;8.30;97.20;;;;;;4879437;29;20120;-87
2021/04/16 09:34:50;;;;;;;2.20;0.57;;;8.30;97.40;;;;;;4879221;29;20117;-87
2021/04/16 09:37:26;;;;;;;3.20;1.70;;;8.30;95.50;;;;;;4879555;29;20108;-87
2021/04/16 09:40:25;;;;;;;4.18;1.17;;;8.30;98.30;;;;;;4879473;29;20049;-86
2021/04/16 09:42:52;;;;;;;1.55;0.55;;;8.30;97.40;;;;;;4876461;29;20060;-86
2021/04/16 09:45:41;;;;;;;1.27;0.50;;;8.30;98.80;;;;;;4879278;29;20067;-87
2021/04/16 09:48:08;;;;;;;6.28;1.40;;;8.30;97.90;;;;;;4879335;29;20398;-87
2021/04/16 09:50:39;;;;;;;2.92;1.10;;;8.30;97.30;;;;;;4884216;29;20049;-87
2021/04/16 09:53:20;;;;;;;2.20;1.20;;;8.30;99.00;;;;;;4891957;29;20081;-85
2021/04/16 09:56:14;;;;;;;6.90;1.67;;;8.30;94.40;;;;;;4937390;29;20091;-81
2021/04/16 09:59:09;;;;;;;6.03;2.75;;;8.30;95.90;;;;;;4937769;29;20056;-90
2021/04/16 10:02:22;;;;;;;3.97;2.17;;;8.20;93.60;;;;;;4937168;29;20457;-80
2021/04/16 10:04:58;;;;;;;2.33;1.58;;;8.20;97.00;;;;;;4937347;29;20052;-86
2021/04/16 10:07:35;;;;;;;3.88;1.95;;;8.20;99.90;;;;;;4937222;29;20052;-85
2021/04/16 10:10:03;;;;;;;2.60;1.67;;;8.20;98.70;;;;;;4937543;29;20066;-85
2021/04/16 10:12:31;;;;;;;4.95;1.63;;;8.20;98.20;;;;;;4937463;29;20058;-85
2021/04/16 10:14:57;;;;;;;3.95;2.38;;;8.30;99.50;;;;;;4937730;29;20055;-85
2021/04/16 10:17:25;;;;;;;4.35;2.05;;;8.30;99.00;;;;;;4937049;29;20469;-85
2021/04/16 10:19:54;;;;;;;4.45;2.60;;;8.30;98.20;;;;;;4937097;29;20473;-84
2021/04/16 10:22:24;;;;;;;6.13;2.25;;;8.30;98.60;;;;;;4937190;29;20054;-85
2021/04/16 12:38:59;;;;;;;13.55;4.53;;;10.20;77.40;;;;;;4938737;29;19930;-82
2021/04/16 12:41:27;;;;;;;9.00;4.63;;;10.20;75.80;;;;;;4938578;29;20126;-82
2021/04/16 12:43:53;;;;;;;8.45;3.55;;;10.20;75.50;;;;;;4938453;29;20142;-82
2021/04/16 12:46:21;;;;;;;8.07;4.07;;;10.20;76.60;;;;;;4938752;29;20051;-82
2021/04/16 12:48:48;;;;;;;7.90;3.67;;;10.20;76.40;;;;;;4938657;29;20057;-82
2021/04/16 12:51:15;;;;;;;8.75;3.67;;;10.20;76.40;;;;;;4938233;29;20047;-82
2021/04/16 12:53:41;;;;;;;6.28;3.92;;;10.30;75.10;;;;;;4938522;29;20062;-82
2021/04/16 12:56:09;;;;;;;7.90;3.55;;;10.30;72.90;;;;;;4938197;29;20056;-83
2021/04/16 12:58:38;;;;;;;7.18;3.20;;;10.40;71.70;;;;;;4938590;29;20055;-82
2021/04/16 13:01:05;;;;;;;6.20;3.15;;;10.50;69.50;;;;;;4937939;29;20051;-83
2021/04/16 13:03:34;;;;;;;5.78;3.50;;;10.60;68.40;;;;;;4938240;29;20138;-82
2021/04/16 13:06:02;;;;;;;13.38;4.35;;;10.60;67.70;;;;;;4938040;29;20061;-82
2021/04/16 13:08:28;;;;;;;7.07;3.90;;;10.60;67.40;;;;;;4938038;29;20479;-79
2021/04/16 13:10:55;;;;;;;5.32;3.25;;;10.60;67.90;;;;;;4937931;29;20051;-80
2021/04/16 13:13:22;;;;;;;6.80;3.83;;;10.70;68.40;;;;;;4938244;29;20051;-82
2021/04/16 13:15:48;;;;;;;9.80;3.97;;;10.70;65.40;;;;;;4937960;29;20131;-81
2021/04/16 13:18:17;;;;;;;8.63;3.85;;;10.80;65.90;;;;;;4938006;29;20358;-82
2021/04/16 13:20:45;;;;;;;6.13;3.30;;;10.90;64.00;;;;;;4937313;29;20051;-87
2021/04/16 13:23:12;;;;;;;7.32;3.78;;;11.00;64.30;;;;;;4940387;29;20059;-81
2021/04/16 13:25:39;;;;;;;6.05;3.38;;;11.10;63.90;;;;;;4949391;29;20051;-82
2021/04/16 13:28:05;;;;;;;6.78;3.40;;;11.20;60.60;;;;;;4956925;28;20134;-82
2021/04/16 13:30:32;;;;;;;5.47;3.55;;;11.40;60.30;;;;;;4955964;29;20416;-82
2021/04/16 13:33:00;;;;;;;6.50;3.53;;;11.50;61.40;;;;;;4955467;29;20059;-81
2021/04/16 13:35:33;;;;;;;7.38;2.97;;;11.60;58.20;;;;;;4956247;29;20047;-81
2021/04/16 13:38:00;;;;;;;7.35;3.45;;;11.70;57.50;;;;;;4956738;29;20085;-81
2021/04/16 13:40:28;;;;;;;9.23;3.13;;;11.70;61.50;;;;;;4956839;29;20136;-81
2021/04/16 13:42:54;;;;;;;8.50;3.40;;;11.70;62.20;;;;;;4957044;29;20059;-81
2021/04/16 13:45:21;;;;;;;5.38;3.92;;;11.70;59.20;;;;;;4956762;29;20051;-81
2021/04/16 13:47:48;;;;;;;5.45;3.28;;;11.70;59.00;;;;;;4956526;29;20055;-81
2021/04/16 13:50:16;;;;;;;6.70;3.13;;;11.80;61.40;;;;;;4956692;29;20053;-81
2021/04/16 13:52:42;;;;;;;11.20;5.00;;;11.80;60.50;;;;;;4956767;29;20051;-81
2021/04/16 13:55:12;;;;;;;7.47;3.53;;;11.80;58.10;;;;;;4955573;29;20535;-81
2021/04/16 13:57:39;;;;;;;6.88;3.10;;;11.80;60.60;;;;;;4956651;29;20057;-81
2021/04/16 14:00:07;;;;;;;7.53;4.10;;;11.80;60.60;;;;;;4956614;29;20059;-82
2021/04/16 14:02:35;;;;;;;8.05;4.10;;;11.90;62.30;;;;;;4956609;29;20061;-81
2021/04/16 14:05:02;;;;;;;9.15;4.47;;;12.00;63.20;;;;;;4956425;29;20057;-81
2021/04/16 14:07:29;;;;;;;6.80;2.95;;;12.00;62.00;;;;;;4956235;29;20510;-81
2021/04/16 14:09:55;;;;;;;5.18;3.58;;;12.10;60.90;;;;;;4956381;29;20047;-80
2021/04/16 14:12:22;;;;;;;6.80;3.03;;;12.20;62.00;;;;;;4956340;29;20058;-81
2021/04/16 14:14:50;;;;;;;14.55;4.05;;;12.20;62.60;;;;;;4956601;29;20077;-81
2021/04/16 14:17:18;;;;;;;6.15;3.13;;;12.20;61.90;;;;;;4956575;29;20062;-81
2021/04/16 14:19:47;;;;;;;5.28;3.38;;;12.30;60.70;;;;;;4956244;29;20051;-81
2021/04/16 14:22:14;;;;;;;4.97;3.60;;;12.40;56.80;;;;;;4956275;29;20488;-81
2021/04/16 14:24:40;;;;;;;11.38;5.18;;;12.40;58.70;;;;;;4956220;29;20516;-81
2021/04/16 14:27:07;;;;;;;5.35;3.42;;;12.50;59.90;;;;;;4956043;29;20055;-81
2021/04/16 14:29:34;;;;;;;6.57;3.65;;;12.60;58.10;;;;;;4956171;28;20477;-81
2021/04/16 14:32:01;;;;;;;6.18;3.45;;;12.60;57.90;;;;;;4956883;28;20047;-81
2021/04/16 14:34:30;;;;;;;4.93;3.13;;;12.50;59.90;;;;;;4960076;29;20047;-81
2021/04/16 14:36:57;;;;;;;5.13;3.80;;;12.50;57.30;;;;;;4960219;29;20457;-81
2021/04/16 14:39:24;;;;;;;5.60;3.63;;;12.50;59.50;;;;;;4960081;29;20053;-81
2021/04/16 14:41:51;;;;;;;5.78;3.53;;;12.40;59.90;;;;;;4960086;29;20133;-81
2021/04/16 14:44:19;;;;;;;5.70;3.63;;;12.30;57.30;;;;;;4959847;29;20061;-81
2021/04/16 14:46:49;;;;;;;5.60;3.55;;;12.30;58.10;;;;;;4960032;29;20058;-81
2021/04/16 14:49:19;;;;;;;6.18;3.85;;;12.30;59.60;;;;;;4959585;29;20098;-80
2021/04/16 14:51:46;;;;;;;4.65;3.60;;;12.40;58.50;;;;;;4959362;29;20476;-80
2021/04/16 14:54:31;;;;;;;7.10;3.75;;;12.30;59.20;;;;;;4959113;29;20425;-81
2021/04/16 14:56:57;;;;;;;;;;;12.20;59.30;;;;;;4959613;29;20146;-81
2021/04/16 14:59:25;;;;;;;5.78;2.83;;;12.10;61.00;;;;;;4959545;29;20021;-81
2021/04/16 15:01:52;;;;;;;6.35;3.20;;;12.00;57.80;;;;;;4959393;29;20114;-81
2021/04/16 15:04:20;;;;;;;5.85;3.15;;;12.00;59.80;;;;;;4959163;29;20066;-81
2021/04/16 15:06:47;;;;;;;5.85;3.38;;;11.90;61.00;;;;;;4959550;29;20086;-81
2021/04/16 15:09:15;;;;;;;6.15;3.55;;;11.90;59.80;;;;;;4959391;29;20051;-80
2021/04/16 15:11:42;;;;;;;7.88;3.28;;;11.80;60.40;;;;;;4959473;29;20431;-81
2021/04/16 15:14:11;;;;;;;5.22;3.17;;;11.80;59.60;;;;;;4959433;29;20066;-81
2021/04/16 15:16:40;;;;;;;9.05;3.75;;;11.80;59.70;;;;;;4959340;29;20193;-80
2021/04/16 15:19:07;;;;;;;12.77;3.60;;;11.80;59.60;;;;;;4958420;29;20055;-80